Time;durP1;ratioP1;P1;durP2;ratioP2;P2;SDS_P1;SDS_P2;PMS_P1;PMS_P2;Temp;Humidity;BMP_temperature;BMP_pressure;BME280_temperature;BME280_humidity;BME280_pressure;Samples;Min_cycle;Max_cycle;Signal;HPM_P1;HPM_P2
2023/12/13 00:01:29;;;;;;;;;;;8.50;99.90;;;7.81;100.00;96336.25;5000582;28;1535;-70
2023/12/13 00:03:56;;;;;;;;;;;8.50;99.90;;;7.84;100.00;96332.69;5015391;28;1759;-69
2023/12/13 00:06:23;;;;;;;;;;;8.50;99.90;;;7.93;100.00;96329.63;4987020;28;1543;-71
2023/12/13 00:08:50;;;;;;;;;;;8.40;99.90;;;7.79;100.00;96332.91;5019076;28;1655;-71
2023/12/13 00:11:17;;;;;;;;;;;8.40;99.90;;;7.82;100.00;96337.09;4986353;28;1537;-71
2023/12/13 00:13:44;;;;;;;;;;;8.40;99.90;;;7.78;100.00;96317.50;4984786;28;1910;-70
2023/12/13 00:16:12;;;;;;;;;;;8.40;99.90;;;7.83;100.00;96323.28;4996872;28;1630;-71
2023/12/13 00:18:39;;;;;;;;;;;8.40;99.90;;;7.83;100.00;96323.28;4986217;28;1670;-71
2023/12/13 00:21:06;;;;;;;;;;;8.40;99.90;;;7.75;100.00;96324.50;4988896;28;1507;-70
2023/12/13 00:23:33;;;;;;;;;;;8.40;99.90;;;7.73;100.00;96334.09;4987271;28;1767;-71
2023/12/13 00:26:03;;;;;;;;;;;8.40;99.90;;;7.71;100.00;96319.59;4987557;28;1595;-70
2023/12/13 00:28:30;;;;;;;;;;;8.40;99.90;;;7.72;100.00;96322.06;4984634;28;2054;-71
2023/12/13 00:30:58;;;;;;;;;;;8.30;99.90;;;7.77;100.00;96318.41;4986045;28;1548;-71
2023/12/13 00:33:25;;;;;;;;;;;8.30;99.90;;;7.71;100.00;96322.16;5015956;28;2049;-71
2023/12/13 00:35:52;;;;;;;;;;;8.30;99.90;;;7.70;100.00;96321.31;4986751;28;1535;-70
2023/12/13 00:38:19;;;;;;;;;;;8.30;99.90;;;7.66;100.00;96319.81;4983759;28;2081;-67
2023/12/13 00:40:45;;;;;;;;;;;8.30;99.90;;;7.67;100.00;96318.88;4987483;28;1773;-71
2023/12/13 00:43:12;;;;;;;;;;;8.30;99.90;;;7.66;100.00;96331.88;4986133;28;1868;-71
2023/12/13 00:45:39;;;;;;;;;;;8.30;99.90;;;7.75;100.00;96321.06;4985675;28;1498;-70
2023/12/13 00:48:06;;;;;;;;;;;8.20;99.90;;;7.63;100.00;96324.28;4989762;28;1383;-70
2023/12/13 00:50:34;;;;;;;;;;;8.20;99.90;;;7.61;100.00;96321.78;4988128;28;1654;-71
2023/12/13 00:53:01;;;;;;;;;;;8.20;99.90;;;7.66;100.00;96321.53;4985985;28;1934;-71
2023/12/13 00:55:28;;;;;;;;;;;8.30;99.90;;;7.62;100.00;96320.88;4988951;28;1574;-71
2023/12/13 00:57:55;;;;;;;;;;;8.30;99.90;;;7.69;100.00;96319.66;4985904;28;1544;-70
2023/12/13 01:00:21;;;;;;;;;;;8.20;99.90;;;7.59;100.00;96310.69;4986479;28;1953;-71
2023/12/13 01:02:48;;;;;;;;;;;8.20;99.90;;;7.61;100.00;96308.03;4986158;28;1587;-70
2023/12/13 01:05:16;;;;;;;;;;;8.20;99.90;;;7.59;100.00;96315.03;4987666;28;1657;-71
2023/12/13 01:07:44;;;;;;;;;;;8.20;99.90;;;7.64;100.00;96313.03;4986985;28;1602;-71
2023/12/13 01:10:11;;;;;;;;;;;8.20;99.90;;;7.61;100.00;96314.03;4987789;28;1574;-71
2023/12/13 01:12:42;;;;;;;;;;;8.20;99.90;;;7.56;100.00;96316.00;4983412;28;1911;-70
2023/12/13 01:15:10;;;;;;;;;;;8.10;99.90;;;7.42;100.00;96315.88;4984013;28;1756;-71
2023/12/13 01:17:38;;;;;;;;;;;8.20;99.90;;;7.46;100.00;96320.00;4987596;28;1544;-70
2023/12/13 01:20:11;;;;;;;;;;;8.10;99.90;;;7.41;100.00;96319.38;5017162;28;1704;-71
2023/12/13 01:22:39;;;;;;;;;;;8.10;99.90;;;7.48;100.00;96320.72;4989863;28;1567;-70
2023/12/13 01:25:06;;;;;;;;;;;8.10;99.90;;;7.50;100.00;96330.09;4986576;28;1473;-71
2023/12/13 01:27:34;;;;;;;;;;;8.10;99.90;;;7.46;100.00;96325.16;4984251;28;1449;-70
2023/12/13 01:30:03;;;;;;;;;;;8.10;99.90;;;7.48;100.00;96326.75;4987372;28;1507;-69
2023/12/13 01:32:30;;;;;;;;;;;8.10;99.90;;;7.46;100.00;96323.41;4998089;28;1914;-69
2023/12/13 01:34:57;;;;;;;;;;;8.10;99.90;;;7.46;100.00;96331.16;4987030;28;1461;-71
2023/12/13 01:37:24;;;;;;;;;;;8.10;99.90;;;7.37;100.00;96313.53;4986834;28;1690;-71
2023/12/13 01:39:56;;;;;;;;;;;8.10;99.90;;;7.49;100.00;96319.81;4984786;28;1448;-70
2023/12/13 01:42:23;;;;;;;;;;;8.10;99.90;;;7.46;100.00;96327.75;4985935;28;1378;-71
2023/12/13 01:44:50;;;;;;;;;;;8.00;99.90;;;7.42;100.00;96315.88;5015621;28;1730;-71
2023/12/13 01:47:17;;;;;;;;;;;8.10;99.90;;;7.41;100.00;96327.09;4986721;28;1488;-71
2023/12/13 01:49:45;;;;;;;;;;;8.00;99.90;;;7.49;100.00;96328.41;4986128;28;1528;-70
2023/12/13 01:52:12;;;;;;;;;;;8.00;99.90;;;7.42;100.00;96316.72;4988773;28;1906;-70
2023/12/13 01:54:41;;;;;;;;;;;8.10;99.90;;;7.45;100.00;96323.47;4968612;28;1332;-71
2023/12/13 01:57:09;;;;;;;;;;;8.00;99.90;;;7.46;100.00;96335.47;4983588;28;1417;-70
2023/12/13 01:59:36;;;;;;;;;;;8.00;99.90;;;7.42;100.00;96321.06;4986172;28;1463;-70
2023/12/13 02:02:03;;;;;;;;;;;8.00;99.90;;;7.32;100.00;96326.66;4983008;28;1877;-69
2023/12/13 02:04:31;;;;;;;;;;;8.00;99.90;;;7.44;100.00;96321.81;4985937;28;1408;-71
2023/12/13 02:06:58;;;;;;;;;;;8.00;99.90;;;7.34;100.00;96321.41;5016082;28;1475;-70
2023/12/13 02:09:25;;;;;;;;;;;;;;;7.39;100.00;96319.47;4987783;28;1603;-71
2023/12/13 02:11:53;;;;;;;;;;;7.90;99.90;;;7.46;100.00;96314.81;4985320;28;1979;-71
2023/12/13 02:14:20;;;;;;;;;;;7.90;99.90;;;7.41;100.00;96311.63;4985879;28;1374;-70
2023/12/13 02:16:47;;;;;;;;;;;7.80;99.90;;;7.32;100.00;96297.41;5014212;28;1460;-71
2023/12/13 02:19:14;;;;;;;;;;;7.90;99.90;;;7.41;100.00;96304.72;4985781;28;1647;-71
2023/12/13 02:21:41;;;;;;;;;;;7.90;99.90;;;7.33;100.00;96302.53;4988555;28;1571;-71
2023/12/13 02:24:08;;;;;;;;;;;7.90;99.90;;;7.48;100.00;96293.19;4987993;28;1367;-68
2023/12/13 02:26:45;;;;;;;;;;;7.90;99.90;;;7.35;100.00;96288.72;4985562;28;1751;-71
2023/12/13 02:29:12;;;;;;;;;;;8.00;99.90;;;7.33;100.00;96278.47;4970626;28;1293;-70
2023/12/13 02:31:43;;;;;;;;;;;7.90;99.90;;;7.26;100.00;96265.03;5011985;28;1534;-71
2023/12/13 02:34:11;;;;;;;;;;;8.00;99.90;;;7.21;100.00;96268.75;4989400;28;1995;-69
2023/12/13 02:36:38;;;;;;;;;;;7.90;99.90;;;7.35;100.00;96271.47;4985330;28;1559;-71
2023/12/13 02:39:05;;;;;;;;;;;7.90;99.90;;;7.32;100.00;96276.78;4984998;28;1426;-71
2023/12/13 02:41:32;;;;;;;;;;;7.90;99.90;;;7.29;100.00;96261.44;5016184;28;1380;-70
2023/12/13 02:44:00;;;;;;;;;;;8.00;99.90;;;7.33;100.00;96261.22;4998563;28;1432;-70
2023/12/13 02:46:28;;;;;;;;;;;8.00;99.90;;;7.36;100.00;96264.56;4986323;28;1466;-71
2023/12/13 02:48:57;;;;;;;;;;;8.00;99.90;;;7.37;100.00;96269.66;4988136;28;1441;-71
2023/12/13 02:51:26;;;;;;;;;;;8.00;99.90;;;7.46;100.00;96258.84;4971347;28;1447;-71
2023/12/13 02:53:52;;;;;;;;;;;8.00;99.90;;;7.43;100.00;96266.75;4989946;28;1927;-71
2023/12/13 02:56:19;;;;;;;;;;;8.00;99.90;;;7.48;100.00;96264.78;4989632;28;1417;-71
2023/12/13 02:58:47;;;;;;;;;;;8.00;99.90;;;7.36;100.00;96264.56;4988899;28;1510;-71
2023/12/13 03:01:13;;;;;;;;;;;8.00;99.90;;;7.33;100.00;96268.13;4989687;28;1572;-71
2023/12/13 03:03:40;;;;;;;;;;;8.00;99.90;;;7.42;100.00;96264.25;4989585;28;1414;-71
2023/12/13 03:06:07;;;;;;;;;;;8.00;99.90;;;7.41;100.00;96268.59;4988459;28;1423;-70
2023/12/13 03:08:36;;;;;;;;;;;8.00;99.90;;;7.41;100.00;96275.47;4988667;28;1366;-71
2023/12/13 03:11:03;;;;;;;;;;;8.00;99.90;;;7.43;100.00;96271.06;4984478;28;1842;-70
2023/12/13 03:13:30;;;;;;;;;;;8.00;99.90;;;7.43;100.00;96261.56;5015051;28;1996;-70
2023/12/13 03:15:57;;;;;;;;;;;8.10;99.90;;;7.56;100.00;96269.53;4987140;28;1630;-71
2023/12/13 03:18:24;;;;;;;;;;;8.10;99.90;;;7.48;100.00;96256.19;5018081;28;1440;-70
2023/12/13 03:20:51;;;;;;;;;;;8.10;99.90;;;7.52;100.00;96260.28;4987457;28;1642;-71
2023/12/13 03:23:18;;;;;;;;;;;8.20;99.90;;;7.53;100.00;96260.22;4989190;28;1437;-70
2023/12/13 03:25:45;;;;;;;;;;;8.20;99.90;;;7.49;100.00;96258.69;4991709;28;1584;-70
2023/12/13 03:28:12;;;;;;;;;;;8.20;99.90;;;7.50;100.00;96250.03;5001771;28;1498;-70
2023/12/13 03:30:39;;;;;;;;;;;8.20;99.90;;;7.60;100.00;96245.22;4988012;28;1647;-71
2023/12/13 03:33:06;;;;;;;;;;;8.20;99.90;;;7.54;100.00;96248.94;4988023;28;1910;-71
2023/12/13 03:35:34;;;;;;;;;;;8.20;99.90;;;7.49;100.00;96250.94;4989362;28;1450;-70
2023/12/13 03:38:00;;;;;;;;;;;8.20;99.90;;;7.50;100.00;96241.44;4990250;28;1521;-70
2023/12/13 03:40:27;;;;;;;;;;;8.20;99.90;;;7.47;100.00;96241.63;4990036;28;1460;-70
2023/12/13 03:42:54;;;;;;;;;;;8.20;99.90;;;7.48;100.00;96251.88;4989179;28;1456;-70
2023/12/13 03:45:23;;;;;;;;;;;8.20;99.90;;;7.44;100.00;96245.19;4989638;28;1742;-71
2023/12/13 03:47:50;;;;;;;;;;;8.20;99.90;;;7.44;100.00;96241.78;4989747;28;1595;-70
2023/12/13 03:50:17;;;;;;;;;;;8.20;99.90;;;7.46;100.00;96248.53;5017051;28;1477;-70
2023/12/13 03:52:44;;;;;;;;;;;8.20;99.90;;;7.43;100.00;96245.25;4987768;28;1906;-70
2023/12/13 03:55:12;;;;;;;;;;;8.10;99.90;;;7.43;100.00;96253.84;4986815;28;1421;-71
2023/12/13 03:57:40;;;;;;;;;;;8.10;99.90;;;7.37;100.00;96241.25;4985277;28;1425;-70
2023/12/13 04:00:07;;;;;;;;;;;8.10;99.90;;;7.41;100.00;96236.75;4988323;28;1590;-71
2023/12/13 04:02:35;;;;;;;;;;;8.00;99.90;;;7.52;100.00;96229.28;4987921;28;1769;-70
2023/12/13 04:05:02;;;;;;;;;;;8.10;99.90;;;7.45;100.00;96226.19;4986995;28;1507;-71
2023/12/13 04:07:29;;;;;;;;;;;8.10;99.90;;;7.43;100.00;96219.44;4990143;28;1390;-71
2023/12/13 04:09:56;;;;;;;;;;;8.10;99.90;;;7.32;100.00;96222.56;4972174;28;1630;-69
2023/12/13 04:12:23;;;;;;;;;;;8.00;99.90;;;7.17;100.00;96211.28;5016667;28;1407;-71
2023/12/13 04:14:50;;;;;;;;;;;8.00;99.90;;;7.20;100.00;96218.03;4985686;28;2077;-71
2023/12/13 04:17:17;;;;;;;;;;;8.00;99.90;;;7.17;100.00;96208.72;4988451;28;1371;-71
2023/12/13 04:19:44;;;;;;;;;;;8.00;99.90;;;7.26;100.00;96217.75;4989872;28;1547;-70
2023/12/13 04:22:11;;;;;;;;;;;8.00;99.90;;;7.23;100.00;96208.41;4987432;28;1456;-71
2023/12/13 04:24:38;;;;;;;;;;;8.00;99.90;;;7.18;100.00;96204.38;4987805;28;2033;-70
2023/12/13 04:27:05;;;;;;;;;;;8.00;99.90;;;7.19;100.00;96208.66;4988361;28;1402;-70
2023/12/13 04:29:32;;;;;;;;;;;8.00;99.90;;;7.17;100.00;96208.72;4988835;28;1444;-70
2023/12/13 04:31:59;;;;;;;;;;;8.00;99.90;;;7.26;100.00;96218.56;4990888;28;1713;-70
2023/12/13 04:34:26;;;;;;;;;;;8.00;99.90;;;7.19;100.00;96222.38;4985147;28;1906;-70
2023/12/13 04:36:53;;;;;;;;;;;7.90;99.90;;;7.19;100.00;96224.97;4988793;28;1434;-70
2023/12/13 04:39:20;;;;;;;;;;;7.90;99.90;;;7.16;100.00;96214.81;5003287;28;1409;-70
2023/12/13 04:41:46;;;;;;;;;;;7.80;99.90;;;7.18;100.00;96210.38;4987462;28;1406;-70
2023/12/13 04:44:14;;;;;;;;;;;7.90;99.90;;;7.11;100.00;96214.19;5017573;28;1738;-71
2023/12/13 04:46:40;;;;;;;;;;;7.90;99.90;;;7.08;100.00;96202.28;4987611;28;1488;-70
2023/12/13 04:49:07;;;;;;;;;;;7.90;99.90;;;7.07;100.00;96202.34;4988163;28;1402;-70
2023/12/13 04:51:34;;;;;;;;;;;7.80;99.90;;;7.09;100.00;96196.22;4988213;28;1362;-70
2023/12/13 04:54:01;;;;;;;;;;;7.80;99.90;;;7.13;100.00;96192.53;4982742;28;1985;-70
2023/12/13 04:56:28;;;;;;;;;;;7.90;99.90;;;7.15;100.00;96191.66;5019475;28;1489;-72
2023/12/13 04:58:55;;;;;;;;;;;7.80;99.90;;;7.07;100.00;96185.13;4986904;28;1591;-71
2023/12/13 05:01:22;;;;;;;;;;;7.90;99.90;;;7.07;100.00;96184.28;4987136;28;1532;-70
2023/12/13 05:03:49;;;;;;;;;;;7.80;99.90;;;7.11;100.00;96180.63;4987727;28;1544;-70
2023/12/13 05:06:16;;;;;;;;;;;7.80;99.90;;;7.11;100.00;96173.72;4987155;28;1379;-71
2023/12/13 05:08:43;;;;;;;;;;;7.80;99.90;;;7.18;100.00;96184.56;4987962;28;1363;-70
2023/12/13 05:11:09;;;;;;;;;;;7.80;99.90;;;7.16;100.00;96185.56;4988018;28;1379;-70
2023/12/13 05:13:36;;;;;;;;;;;7.90;99.90;;;7.12;100.00;96182.31;4985090;28;1914;-70
2023/12/13 05:16:03;;;;;;;;;;;7.90;99.90;;;7.11;100.00;96185.78;4984363;28;1564;-70
2023/12/13 05:18:30;;;;;;;;;;;7.90;99.90;;;7.08;100.00;96180.81;4987729;28;1398;-70
2023/12/13 05:20:57;;;;;;;;;;;7.90;99.90;;;7.12;100.00;96190.06;4987746;28;1390;-70
2023/12/13 05:23:26;;;;;;;;;;;7.80;99.90;;;7.07;100.00;96187.72;4987744;28;1405;-70
2023/12/13 05:25:53;;;;;;;;;;;7.90;99.90;;;7.09;100.00;96180.72;4987880;28;1511;-71
2023/12/13 05:28:20;;;;;;;;;;;7.80;99.90;;;7.12;100.00;96180.56;5014106;28;1616;-71
2023/12/13 05:30:47;;;;;;;;;;;7.90;99.90;;;7.21;100.00;96179.25;4986787;28;1455;-70
2023/12/13 05:33:14;;;;;;;;;;;7.90;99.90;;;7.22;100.00;96183.50;5017645;28;1993;-71
2023/12/13 05:35:41;;;;;;;;;;;7.90;99.90;;;7.24;100.00;96179.09;4987223;28;1398;-71
2023/12/13 05:38:09;;;;;;;;;;;7.90;99.90;;;7.22;100.00;96193.00;4990753;28;1386;-70
2023/12/13 05:40:35;;;;;;;;;;;7.80;99.90;;;7.26;100.00;96184.19;5015736;28;1773;-70
2023/12/13 05:43:03;;;;;;;;;;;7.90;99.90;;;7.28;100.00;96179.78;4985351;28;1509;-70
2023/12/13 05:45:29;;;;;;;;;;;8.00;99.90;;;7.26;100.00;96181.59;4987517;28;1768;-70
2023/12/13 05:47:56;;;;;;;;;;;7.90;99.90;;;7.27;100.00;96175.53;4985782;28;1600;-70
2023/12/13 05:50:24;;;;;;;;;;;7.90;99.90;;;7.26;100.00;96182.44;4987299;28;1454;-70
2023/12/13 05:52:50;;;;;;;;;;;8.00;99.90;;;7.33;100.00;96172.63;5020199;28;1392;-71
2023/12/13 05:55:18;;;;;;;;;;;8.00;99.90;;;7.32;100.00;96161.47;4985759;28;1651;-70
2023/12/13 05:57:44;;;;;;;;;;;8.00;99.90;;;7.30;100.00;96165.06;4986497;28;1544;-70
2023/12/13 06:00:13;;;;;;;;;;;8.00;99.90;;;7.36;100.00;96145.81;4987620;28;1484;-71
2023/12/13 06:02:40;;;;;;;;;;;8.00;99.90;;;7.34;100.00;96153.63;4999898;28;1769;-70
2023/12/13 06:05:22;;;;;;;;;;;8.00;99.90;;;7.32;100.00;96145.13;5011526;28;1530;-70
2023/12/13 06:07:50;;;;;;;;;;;8.10;99.90;;;7.33;100.00;96155.38;4986554;28;1501;-71
2023/12/13 06:10:17;;;;;;;;;;;8.10;99.90;;;7.36;100.00;96153.56;4983713;28;1649;-71
2023/12/13 06:12:44;;;;;;;;;;;8.10;99.90;;;7.36;100.00;96156.16;4979435;28;1857;-71
2023/12/13 06:15:11;;;;;;;;;;;8.10;99.90;;;7.41;100.00;96155.00;4979395;28;1918;-70
2023/12/13 06:17:37;;;;;;;;;;;8.10;99.90;;;7.52;100.00;96167.31;4988455;28;1070;-71
2023/12/13 06:20:06;;;;;;;;;;;8.10;99.90;;;7.47;100.00;96159.81;4985377;28;1359;-70
2023/12/13 06:22:33;;;;;;;;;;;8.10;99.90;;;7.46;100.00;96157.34;4970671;28;1558;-71
2023/12/13 06:25:00;;;;;;;;;;;8.10;99.90;;;7.54;100.00;96161.16;4986461;28;1096;-70
2023/12/13 06:27:27;;;;;;;;;;;8.20;99.90;;;7.54;100.00;96153.41;4990171;28;1069;-70
2023/12/13 06:29:53;;;;;;;;;;;8.10;99.90;;;7.53;100.00;96153.50;4990737;28;1189;-70
2023/12/13 06:32:20;;;;;;;;;;;8.10;99.90;;;7.63;100.00;96153.84;4991334;28;1272;-70
2023/12/13 06:34:47;;;;;;;;;;;8.20;99.90;;;7.59;100.00;96154.94;4988470;28;1887;-71
2023/12/13 06:37:14;;;;;;;;;;;8.20;99.90;;;7.54;100.00;96150.84;4990549;28;1091;-71
2023/12/13 06:39:41;;;;;;;;;;;8.20;99.90;;;7.54;100.00;96150.84;4990083;28;1304;-71
2023/12/13 06:42:08;;;;;;;;;;;8.20;99.90;;;7.49;100.00;96142.50;4990997;28;1304;-71
2023/12/13 06:44:36;;;;;;;;;;;8.20;99.90;;;7.46;100.00;96134.09;4990337;28;1086;-70
2023/12/13 06:47:04;;;;;;;;;;;8.20;99.90;;;7.49;100.00;96139.94;4990120;28;1241;-71
2023/12/13 06:49:32;;;;;;;;;;;8.20;99.90;;;7.59;100.00;96142.00;5005684;28;1104;-70
2023/12/13 06:52:00;;;;;;;;;;;8.10;99.90;;;7.52;100.00;96134.59;4992720;28;1343;-71
2023/12/13 06:54:28;;;;;;;;;;;8.10;99.90;;;7.63;100.00;96138.34;4988951;28;1927;-70
2023/12/13 06:56:55;;;;;;;;;;;8.10;99.90;;;7.56;100.00;96139.59;5021018;28;1338;-70
2023/12/13 06:59:22;;;;;;;;;;;8.00;99.90;;;7.45;100.00;96129.84;4993182;28;1156;-70
2023/12/13 07:01:49;;;;;;;;;;;8.10;99.90;;;7.42;100.00;96130.84;4990752;28;1371;-70
2023/12/13 07:04:16;;;;;;;;;;;8.10;99.90;;;7.40;100.00;96124.94;4990622;28;1292;-72
2023/12/13 07:06:44;;;;;;;;;;;8.10;99.90;;;7.38;100.00;96137.06;4988290;28;1078;-70
2023/12/13 07:09:15;;;;;;;;;;;8.10;99.90;;;7.41;100.00;96143.81;5022662;28;1394;-70
2023/12/13 07:11:42;;;;;;;;;;;8.10;99.90;;;7.45;100.00;96147.91;4990502;28;1308;-71
2023/12/13 07:14:09;;;;;;;;;;;8.10;99.90;;;7.40;100.00;96139.59;4990336;28;1902;-70
2023/12/13 07:16:36;;;;;;;;;;;8.10;99.90;;;7.45;100.00;96150.50;4988937;28;1144;-70
2023/12/13 07:19:04;;;;;;;;;;;8.10;99.90;;;7.40;100.00;96147.34;4991197;28;1151;-71
2023/12/13 07:21:31;;;;;;;;;;;8.10;99.90;;;7.40;100.00;96145.56;4992927;28;1098;-71
2023/12/13 07:23:57;;;;;;;;;;;8.10;99.90;;;7.41;100.00;96144.69;4991575;28;1418;-70
2023/12/13 07:26:24;;;;;;;;;;;8.10;99.90;;;7.45;100.00;96146.16;4991017;28;1027;-71
2023/12/13 07:28:55;;;;;;;;;;;8.10;99.90;;;7.37;100.00;96156.06;5021860;28;994;-71
2023/12/13 07:31:23;;;;;;;;;;;8.10;99.90;;;7.52;100.00;96167.31;4991112;28;1047;-71
2023/12/13 07:33:49;;;;;;;;;;;8.10;99.90;;;7.42;100.00;96166.16;4988183;28;2003;-71
2023/12/13 07:36:16;;;;;;;;;;;8.10;99.90;;;7.37;100.00;96155.22;5020861;28;1674;-70
2023/12/13 07:38:43;;;;;;;;;;;8.10;99.90;;;7.36;100.00;96154.38;4989158;28;1198;-71
2023/12/13 07:41:10;;;;;;;;;;;8.10;99.90;;;7.38;100.00;96159.47;5021104;28;1096;-71
2023/12/13 07:43:39;;;;;;;;;;;8.10;99.90;;;7.33;100.00;96152.81;4973348;28;1616;-70
2023/12/13 07:46:06;;;;;;;;;;;8.10;99.90;;;7.41;100.00;96160.16;4987356;28;1001;-71
2023/12/13 07:48:33;;;;;;;;;;;8.10;99.90;;;7.42;100.00;96153.25;4988350;28;1004;-71
2023/12/13 07:51:00;;;;;;;;;;;8.10;99.90;;;7.38;100.00;96151.75;4988965;28;1159;-70
2023/12/13 07:53:27;;;;;;;;;;;8.10;99.90;;;7.40;100.00;96152.50;4991720;28;1906;-70
2023/12/13 07:55:54;;;;;;;;;;;8.10;99.90;;;7.54;100.00;96161.16;4993770;28;1137;-70
2023/12/13 07:58:21;;;;;;;;;;;8.10;99.90;;;7.45;100.00;96156.47;5003435;28;1148;-71
2023/12/13 08:00:48;;;;;;;;;;;8.00;99.90;;;7.43;100.00;96147.16;4989857;28;1114;-71
2023/12/13 08:03:15;;;;;;;;;;;8.00;99.90;;;7.37;100.00;96148.34;4989207;28;1662;-71
2023/12/13 08:05:42;;;;;;;;;;;8.00;99.90;;;7.33;100.00;96142.47;4987759;28;1085;-70
2023/12/13 08:08:09;;;;;;;;;;;8.00;99.90;;;7.28;100.00;96135.91;4938758;28;1025;-70
2023/12/13 08:10:36;;;;;;;;;;;8.00;99.90;;;7.31;100.00;96139.16;4976235;28;1149;-70
2023/12/13 08:13:03;;;;;;;;;;;8.00;99.90;;;7.34;100.00;96148.47;4986203;28;1736;-70
2023/12/13 08:15:30;;;;;;;;;;;8.00;99.90;;;7.30;100.00;96152.97;4982204;28;1910;-71
2023/12/13 08:18:02;;;;;;;;;;;8.00;99.90;;;7.30;100.00;96147.00;4986217;28;1070;-71
2023/12/13 08:20:29;;;;;;;;;;;8.00;99.90;;;7.35;100.00;96145.00;4984794;28;1548;-71
2023/12/13 08:22:57;;;;;;;;;;;8.00;99.90;;;7.45;100.00;96148.75;4986191;28;1332;-71
2023/12/13 08:25:24;;;;;;;;;;;8.10;99.90;;;7.40;100.00;96149.91;4983940;28;1577;-71
2023/12/13 08:27:51;;;;;;;;;;;8.10;99.90;;;7.44;100.00;96148.84;4984577;28;1115;-71
2023/12/13 08:30:18;;;;;;;;;;;8.10;99.90;;;7.54;100.00;96153.41;4985921;28;1061;-71
2023/12/13 08:32:46;;;;;;;;;;;8.10;99.90;;;7.50;100.00;96151.06;4985632;28;1288;-70
2023/12/13 08:35:14;;;;;;;;;;;8.10;99.90;;;7.61;100.00;96143.59;4984541;28;1902;-71
2023/12/13 08:37:41;;;;;;;;;;;8.10;99.90;;;7.63;100.00;96144.34;4984403;28;1121;-70
2023/12/13 08:40:10;;;;;;;;;;;8.10;99.90;;;7.62;100.00;96144.41;4981306;28;1096;-71
2023/12/13 08:42:38;;;;;;;;;;;8.20;99.90;;;7.72;100.00;96148.19;4982386;28;1782;-70
2023/12/13 08:45:11;;;;;;;;;;;8.30;99.90;;;7.58;100.00;96145.53;5014713;28;1091;-70
2023/12/13 08:47:38;;;;;;;;;;;8.30;99.90;;;7.51;100.00;96150.19;4983219;28;1131;-71
2023/12/13 08:50:06;;;;;;;;;;;8.30;99.90;;;7.67;100.00;96155.34;4984488;28;1107;-71
2023/12/13 08:52:33;;;;;;;;;;;8.20;99.90;;;7.62;100.00;96147.00;4986641;28;1272;-71
2023/12/13 08:55:00;;;;;;;;;;;8.20;99.90;;;7.73;100.00;96150.69;4984731;28;1910;-70
2023/12/13 08:57:27;;;;;;;;;;;8.30;99.90;;;7.67;100.00;96155.34;4997715;28;1199;-71
2023/12/13 08:59:54;;;;;;;;;;;8.20;99.90;;;7.50;100.00;96146.78;4984874;28;1229;-70
2023/12/13 09:02:31;;;;;;;;;;;8.20;99.90;;;7.62;100.00;96149.59;4985162;28;1336;-71
2023/12/13 09:05:00;;;;;;;;;;;8.20;99.90;;;7.57;100.00;96162.75;5014410;28;1355;-70
2023/12/13 09:07:27;;;;;;;;;;;8.10;99.90;;;7.75;100.00;96163.50;4983202;28;1055;-70
2023/12/13 09:09:54;;;;;;;;;;;8.20;99.90;;;7.65;100.00;96162.34;4985001;28;1114;-70
2023/12/13 09:12:21;;;;;;;;;;;8.20;99.90;;;7.66;100.00;96164.00;4984186;28;1394;-71
2023/12/13 09:14:48;;;;;;;;;;;8.20;99.90;;;7.72;100.00;96161.94;4983421;28;2027;-71
2023/12/13 09:17:14;;;;;;;;;;;8.20;99.90;;;7.90;100.00;96167.03;4985044;28;1205;-70
2023/12/13 09:19:43;;;;;;;;;;;8.30;99.90;;;7.66;100.00;96157.13;4981654;28;1114;-70
2023/12/13 09:22:11;;;;;;;;;;;8.30;99.90;;;7.77;100.00;96166.84;4984346;28;1279;-70
2023/12/13 09:24:37;;;;;;;;;;;8.30;99.90;;;7.63;100.00;96171.94;4983550;28;1625;-70
2023/12/13 09:27:04;;;;;;;;;;;8.30;99.90;;;7.79;100.00;96170.19;4983179;28;1108;-71
2023/12/13 09:29:31;;;;;;;;;;;8.40;99.90;;;7.86;100.00;96176.69;5013166;28;1085;-70
2023/12/13 09:32:00;;;;;;;;;;;8.40;99.90;;;7.84;100.00;96172.53;4983161;28;1280;-71
2023/12/13 09:34:27;;;;;;;;;;;8.30;99.90;;;7.85;100.00;96171.63;4981866;28;1907;-71
2023/12/13 09:36:54;;;;;;;;;;;8.40;99.90;;;7.88;100.00;96174.84;4985590;28;1168;-70
2023/12/13 09:39:21;;;;;;;;;;;8.40;99.90;;;8.01;100.00;96177.63;4983883;28;1240;-70
2023/12/13 09:42:00;;;;;;;;;;;8.30;99.90;;;8.02;100.00;96179.25;4981117;28;1413;-71
2023/12/13 09:44:28;;;;;;;;;;;8.40;99.90;;;7.86;100.00;96165.53;4981868;28;1066;-70
2023/12/13 09:46:59;;;;;;;;;;;8.40;99.90;;;7.88;100.00;96172.28;5013022;28;1282;-70
2023/12/13 09:49:27;;;;;;;;;;;8.40;99.90;;;7.88;100.00;96179.19;4980200;28;1114;-70
2023/12/13 09:52:09;;;;;;;;;;;8.30;99.90;;;7.82;100.00;96182.09;4983405;28;1351;-71
2023/12/13 09:54:38;;;;;;;;;;;8.30;99.90;;;7.90;100.00;96174.78;4982794;28;1910;-71
2023/12/13 09:57:06;;;;;;;;;;;8.40;99.90;;;7.74;100.00;96185.09;4982734;28;1098;-71
2023/12/13 09:59:33;;;;;;;;;;;8.50;99.90;;;7.92;100.00;96178.13;5015013;28;1231;-70
2023/12/13 10:02:00;;;;;;;;;;;8.40;99.90;;;7.90;100.00;96185.94;4984220;28;1386;-71
2023/12/13 10:04:28;;;;;;;;;;;8.40;99.90;;;7.78;100.00;96189.19;5014388;28;1097;-70
2023/12/13 10:06:55;;;;;;;;;;;8.40;99.90;;;7.83;100.00;96188.94;4993579;28;1387;-71
2023/12/13 10:09:29;;;;;;;;;;;8.50;99.90;;;7.81;100.00;96189.03;5014429;28;1093;-71
2023/12/13 10:11:56;;;;;;;;;;;8.50;99.90;;;7.94;100.00;96191.78;4983149;28;1394;-71
2023/12/13 10:14:25;;;;;;;;;;;8.50;99.90;;;8.17;100.00;96188.75;4963737;28;1975;-71
2023/12/13 10:16:53;;;;;;;;;;;8.60;99.90;;;8.15;100.00;96189.78;4979861;28;1243;-71
2023/12/13 10:19:35;;;;;;;;;;;8.70;99.90;;;8.26;100.00;96191.78;4981426;28;1234;-70
2023/12/13 10:22:05;;;;;;;;;;;8.80;99.90;;;8.25;100.00;96183.16;4981976;28;1276;-71
2023/12/13 10:24:33;;;;;;;;;;;8.80;99.90;;;8.11;100.00;96172.75;4982551;28;1781;-70
2023/12/13 10:27:00;;;;;;;;;;;8.90;99.90;;;8.23;100.00;96177.25;4993438;28;1314;-70
2023/12/13 10:29:27;;;;;;;;;;;8.80;99.90;;;8.28;100.00;96177.84;4977492;28;1330;-70
2023/12/13 10:31:57;;;;;;;;;;;8.80;99.90;;;8.21;100.00;96173.94;4978383;28;1398;-70
2023/12/13 10:34:24;;;;;;;;;;;8.80;99.90;;;8.36;100.00;96165.31;4982446;28;1979;-70
2023/12/13 10:36:54;;;;;;;;;;;8.70;99.90;;;8.29;100.00;96158.00;4981578;28;1119;-69
2023/12/13 10:39:23;;;;;;;;;;;8.90;99.90;;;8.23;100.00;96159.16;4982521;28;1319;-69
2023/12/13 10:41:57;;;;;;;;;;;8.80;99.90;;;8.33;100.00;96143.97;4993988;28;1368;-70
2023/12/13 10:44:26;;;;;;;;;;;8.90;99.90;;;8.21;100.00;96148.09;4979533;28;1399;-71
2023/12/13 10:46:56;;;;;;;;;;;8.80;99.90;;;8.18;100.00;96136.13;4981317;28;1324;-70
2023/12/13 10:49:24;;;;;;;;;;;8.80;99.90;;;8.10;100.00;96143.50;4981725;28;1317;-70
2023/12/13 10:51:52;;;;;;;;;;;8.80;99.90;;;8.05;100.00;96135.19;4980874;28;1300;-69
2023/12/13 10:54:19;;;;;;;;;;;8.70;99.90;;;8.25;100.00;96140.97;4980723;28;1906;-70
2023/12/13 10:56:46;;;;;;;;;;;8.70;99.90;;;8.23;100.00;96132.47;4965232;28;1267;-69
2023/12/13 10:59:13;;;;;;;;;;;8.80;99.90;;;8.14;100.00;96145.00;5013201;28;1289;-70
2023/12/13 11:01:42;;;;;;;;;;;8.80;99.90;;;8.21;100.00;96126.56;4982883;28;1395;-69
2023/12/13 11:04:12;;;;;;;;;;;8.80;99.90;;;8.24;100.00;96136.75;4981882;28;1393;-71
2023/12/13 11:06:45;;;;;;;;;;;8.70;99.90;;;8.24;100.00;96134.16;4981787;28;1149;-70
2023/12/13 11:09:17;;;;;;;;;;;8.70;99.90;;;8.14;100.00;96126.91;4993623;28;1125;-70
2023/12/13 11:11:45;;;;;;;;;;;8.80;99.90;;;8.03;100.00;96133.56;4984514;28;1368;-69
2023/12/13 11:14:15;;;;;;;;;;;8.80;99.90;;;8.00;100.00;96139.75;4984104;28;1384;-69
2023/12/13 11:16:45;;;;;;;;;;;8.80;99.90;;;8.14;100.00;96119.16;4987640;28;1992;-70
2023/12/13 11:19:22;;;;;;;;;;;8.70;99.90;;;8.27;100.00;96128.81;4987532;28;1100;-69
2023/12/13 11:21:52;;;;;;;;;;;8.70;99.90;;;8.22;100.00;96130.81;4980349;28;1368;-69
2023/12/13 11:24:23;;;;;;;;;;;8.70;99.90;;;8.27;100.00;96127.03;4984361;28;1632;-69
2023/12/13 11:26:52;;;;;;;;;;;8.60;99.90;;;8.37;100.00;96123.03;4984549;28;1198;-69
2023/12/13 11:29:28;;;;;;;;;;;8.60;99.90;;;8.32;100.00;96113.84;4984202;28;1286;-70
2023/12/13 11:32:03;;;;;;;;;;;8.70;99.90;;;8.64;100.00;96119.78;4985191;28;1427;-69
2023/12/13 11:34:35;;;;;;;;;;;8.80;99.90;;;8.52;100.00;96121.34;4986440;28;1931;-70
2023/12/13 11:37:03;;;;;;;;;;;8.80;99.90;;;8.54;100.00;96116.09;4986459;28;1078;-70